Terminal Aerodrome Forecast
Issued by NWS Buffalo, NY

Home | Current Version | Previous Version | Text Only | Print | Product List | Glossary On
Versions: 1 2 3 4 5 6 7 8 9 10 11 12 13 14 15 16 17 18 19 20 21 22 23 24 25
000
FTUS41 KBUF 010500
TAFROC
TAF
KROC 010528Z 0106/0206 05005KT P6SM OVC007
     FM010800 03006KT 2SM BR OVC007
     FM011300 05006KT P6SM BKN007
     FM011600 06007KT P6SM BKN015
     FM011800 05007KT P6SM SCT015
     FM020100 07004KT P6SM SCT250=

USA.gov is the U.S. government's official web portal to all federal, state and local government web resources and services.